RYR14RE EGSS-EIDW
Flight info
| Callsign | RYR14RE |
|---|---|
| Flight time | 0h 49m |
| Altitude | 34000 |
| Route | UTAVA Q75 BUZAD T420 TNT UL28 LELDO M145 BAGSO BAGSO4L |
| Aircraft | B738/M-SDE3FGILRWY/SB1 |
Departure
| Time | 2026-05-04 10:58 |
|---|---|
| Airport | London Stansted Airport (EGSS) |
Arrival
| Time | 2026-05-04 11:48 |
|---|---|
| Airport | Dublin Airport (EIDW) |
| Time | Latitude | Longitude | Altitude | Speed | Heading |
|---|---|---|---|---|---|
| 2026-05-04 10:32 | 51.89263 | 0.25917 | 355 ft | 0 kts | 42° |
| 2026-05-04 10:49 | 51.89203 | 0.25901 | 358 ft | 0 kts | 313° |
| 2026-05-04 10:51 | 51.89312 | 0.25713 | 348 ft | 11 kts | 313° |
| 2026-05-04 10:52 | 51.89361 | 0.25625 | 350 ft | 10 kts | 305° |
| 2026-05-04 10:52 | 51.89340 | 0.25523 | 348 ft | 12 kts | 223° |
| 2026-05-04 10:52 | 51.89268 | 0.25416 | 348 ft | 17 kts | 223° |
| 2026-05-04 10:54 | 51.88333 | 0.24011 | 351 ft | 24 kts | 223° |
| 2026-05-04 10:54 | 51.88214 | 0.23832 | 350 ft | 23 kts | 223° |
| 2026-05-04 10:56 | 51.87865 | 0.22802 | 333 ft | 6 kts | 312° |
| 2026-05-04 10:56 | 51.87894 | 0.22750 | 332 ft | 6 kts | 312° |
| 2026-05-04 10:56 | 51.87923 | 0.22699 | 336 ft | 6 kts | 312° |
| 2026-05-04 10:57 | 51.87958 | 0.22668 | 336 ft | 6 kts | 6° |
| 2026-05-04 10:57 | 51.88002 | 0.22732 | 336 ft | 20 kts | 43° |
| 2026-05-04 10:57 | 51.88282 | 0.23151 | 341 ft | 89 kts | 43° |
| 2026-05-04 10:57 | 51.88882 | 0.24050 | 348 ft | 144 kts | 42° |
| 2026-05-04 10:58 | 51.89667 | 0.25246 | 722 ft | 160 kts | 44° |
| 2026-05-04 10:58 | 51.90466 | 0.26516 | 1446 ft | 164 kts | 44° |
| 2026-05-04 10:58 | 51.91330 | 0.27847 | 1927 ft | 180 kts | 43° |
| 2026-05-04 10:58 | 51.92329 | 0.29198 | 2343 ft | 195 kts | 31° |
| 2026-05-04 10:59 | 51.93642 | 0.29924 | 2730 ft | 206 kts | 6° |
| 2026-05-04 10:59 | 51.95083 | 0.29633 | 3112 ft | 216 kts | 339° |
| 2026-05-04 10:59 | 51.96355 | 0.28220 | 3364 ft | 237 kts | 310° |
| 2026-05-04 10:59 | 51.97088 | 0.25710 | 3665 ft | 257 kts | 282° |
| 2026-05-04 11:00 | 51.97369 | 0.22806 | 4291 ft | 263 kts | 277° |
| 2026-05-04 11:01 | 52.00399 | 0.02245 | 9505 ft | 284 kts | 316° |
| 2026-05-04 11:02 | 52.01910 | 0.00122 | 10256 ft | 290 kts | 317° |
| 2026-05-04 11:02 | 52.03444 | -0.01983 | 10493 ft | 312 kts | 318° |
| 2026-05-04 11:05 | 52.30611 | -0.41905 | 18838 ft | 404 kts | 315° |
| 2026-05-04 11:06 | 52.32011 | -0.44008 | 19253 ft | 406 kts | 315° |
| 2026-05-04 11:06 | 52.34099 | -0.47149 | 19839 ft | 409 kts | 315° |
| 2026-05-04 11:06 | 52.36199 | -0.50312 | 20387 ft | 412 kts | 315° |
| 2026-05-04 11:06 | 52.38287 | -0.53460 | 20939 ft | 415 kts | 315° |
| 2026-05-04 11:08 | 52.53504 | -0.76537 | 24450 ft | 436 kts | 315° |
| 2026-05-04 11:10 | 52.69270 | -1.00688 | 27095 ft | 454 kts | 316° |
| 2026-05-04 11:12 | 52.85814 | -1.26297 | 29414 ft | 471 kts | 319° |
| 2026-05-04 11:12 | 52.88191 | -1.30002 | 29934 ft | 469 kts | 319° |
| 2026-05-04 11:12 | 52.90559 | -1.33699 | 30349 ft | 468 kts | 319° |
| 2026-05-04 11:12 | 52.92927 | -1.37401 | 30714 ft | 468 kts | 319° |
| 2026-05-04 11:13 | 52.95293 | -1.41105 | 31080 ft | 467 kts | 319° |
| 2026-05-04 11:13 | 52.97646 | -1.44794 | 31469 ft | 466 kts | 319° |
| 2026-05-04 11:13 | 52.99995 | -1.48483 | 31865 ft | 464 kts | 319° |
| 2026-05-04 11:13 | 53.02333 | -1.52161 | 32238 ft | 463 kts | 320° |
| 2026-05-04 11:14 | 53.03093 | -1.53358 | 32351 ft | 463 kts | 320° |
| 2026-05-04 11:14 | 53.07771 | -1.60734 | 32974 ft | 464 kts | 320° |
| 2026-05-04 11:16 | 53.24391 | -1.91052 | 34065 ft | 472 kts | 295° |
| 2026-05-04 11:16 | 53.26056 | -2.01502 | 34084 ft | 477 kts | 285° |
| 2026-05-04 11:17 | 53.27455 | -2.12434 | 34069 ft | 479 kts | 285° |
| 2026-05-04 11:19 | 53.33207 | -2.56031 | 34074 ft | 482 kts | 285° |
| 2026-05-04 11:19 | 53.34645 | -2.66980 | 34067 ft | 483 kts | 285° |
| 2026-05-04 11:20 | 53.36074 | -2.77960 | 34078 ft | 483 kts | 285° |
| 2026-05-04 11:20 | 53.37493 | -2.88944 | 34077 ft | 483 kts | 285° |
| 2026-05-04 11:22 | 53.43041 | -3.32758 | 34084 ft | 481 kts | 285° |
| 2026-05-04 11:23 | 53.44405 | -3.43741 | 34071 ft | 481 kts | 285° |
| 2026-05-04 11:25 | 53.46908 | -3.64133 | 34067 ft | 481 kts | 285° |
| 2026-05-04 11:25 | 53.47470 | -3.68753 | 34074 ft | 481 kts | 285° |
| 2026-05-04 11:27 | 53.53363 | -4.18196 | 30944 ft | 483 kts | 285° |
| 2026-05-04 11:28 | 53.54010 | -4.23745 | 30206 ft | 483 kts | 285° |
| 2026-05-04 11:28 | 53.54654 | -4.29288 | 29324 ft | 483 kts | 284° |
| 2026-05-04 11:28 | 53.55296 | -4.34828 | 28499 ft | 482 kts | 284° |
| 2026-05-04 11:28 | 53.55932 | -4.40354 | 27726 ft | 480 kts | 284° |
| 2026-05-04 11:29 | 53.56559 | -4.45829 | 27132 ft | 473 kts | 284° |
| 2026-05-04 11:29 | 53.57175 | -4.51235 | 26533 ft | 468 kts | 283° |
| 2026-05-04 11:29 | 53.57783 | -4.56583 | 25934 ft | 463 kts | 283° |
| 2026-05-04 11:29 | 53.58382 | -4.61873 | 25349 ft | 459 kts | 283° |
| 2026-05-04 11:31 | 53.62371 | -4.97654 | 21160 ft | 427 kts | 282° |
| 2026-05-04 11:33 | 53.65970 | -5.30858 | 17163 ft | 400 kts | 281° |
| 2026-05-04 11:33 | 53.66460 | -5.35447 | 16606 ft | 395 kts | 281° |
| 2026-05-04 11:33 | 53.66943 | -5.39984 | 16050 ft | 391 kts | 281° |
| 2026-05-04 11:34 | 53.67399 | -5.44476 | 15530 ft | 387 kts | 278° |
| 2026-05-04 11:34 | 53.67426 | -5.48999 | 14961 ft | 386 kts | 265° |
| 2026-05-04 11:34 | 53.66989 | -5.53440 | 14417 ft | 383 kts | 261° |
| 2026-05-04 11:34 | 53.66495 | -5.57835 | 13882 ft | 379 kts | 260° |
| 2026-05-04 11:35 | 53.66003 | -5.62188 | 13284 ft | 376 kts | 260° |
| 2026-05-04 11:35 | 53.65521 | -5.66499 | 12743 ft | 372 kts | 261° |
| 2026-05-04 11:35 | 53.65049 | -5.70752 | 12210 ft | 368 kts | 260° |
| 2026-05-04 11:35 | 53.64593 | -5.74928 | 11704 ft | 364 kts | 260° |
| 2026-05-04 11:36 | 53.64128 | -5.79159 | 11176 ft | 361 kts | 260° |
| 2026-05-04 11:36 | 53.63673 | -5.83276 | 10914 ft | 351 kts | 261° |
| 2026-05-04 11:36 | 53.63240 | -5.87189 | 10798 ft | 338 kts | 261° |
| 2026-05-04 11:36 | 53.62816 | -5.91052 | 10703 ft | 325 kts | 261° |
| 2026-05-04 11:37 | 53.62415 | -5.94722 | 10617 ft | 312 kts | 261° |
| 2026-05-04 11:37 | 53.62031 | -5.98253 | 10534 ft | 301 kts | 261° |
| 2026-05-04 11:37 | 53.61676 | -6.01491 | 10458 ft | 291 kts | 260° |
| 2026-05-04 11:37 | 53.61309 | -6.04818 | 10218 ft | 287 kts | 261° |
| 2026-05-04 11:38 | 53.60941 | -6.08105 | 9938 ft | 285 kts | 261° |
| 2026-05-04 11:38 | 53.60577 | -6.11385 | 9590 ft | 285 kts | 260° |
| 2026-05-04 11:38 | 53.60217 | -6.14652 | 9285 ft | 283 kts | 260° |
| 2026-05-04 11:38 | 53.59862 | -6.17911 | 8956 ft | 282 kts | 260° |
| 2026-05-04 11:39 | 53.59512 | -6.21141 | 8649 ft | 280 kts | 261° |
| 2026-05-04 11:39 | 53.59160 | -6.24367 | 8343 ft | 278 kts | 261° |
| 2026-05-04 11:40 | 53.57066 | -6.43248 | 6606 ft | 270 kts | 261° |
| 2026-05-04 11:41 | 53.56725 | -6.46336 | 6281 ft | 270 kts | 260° |
| 2026-05-04 11:41 | 53.56377 | -6.49443 | 5944 ft | 270 kts | 261° |
| 2026-05-04 11:41 | 53.55790 | -6.52443 | 5562 ft | 274 kts | 243° |
| 2026-05-04 11:41 | 53.54821 | -6.55185 | 5401 ft | 269 kts | 239° |
| 2026-05-04 11:42 | 53.53838 | -6.57797 | 5311 ft | 260 kts | 238° |
| 2026-05-04 11:42 | 53.52882 | -6.60315 | 5227 ft | 252 kts | 239° |
| 2026-05-04 11:42 | 53.51946 | -6.62743 | 5102 ft | 245 kts | 236° |
| 2026-05-04 11:42 | 53.50728 | -6.64738 | 4759 ft | 250 kts | 208° |
| 2026-05-04 11:43 | 53.49079 | -6.65415 | 4553 ft | 245 kts | 176° |
| 2026-05-04 11:43 | 53.47486 | -6.64606 | 4269 ft | 241 kts | 144° |
| 2026-05-04 11:43 | 53.46281 | -6.62713 | 4079 ft | 234 kts | 129° |
| 2026-05-04 11:43 | 53.45461 | -6.60414 | 3767 ft | 229 kts | 97° |
| 2026-05-04 11:44 | 53.45384 | -6.57848 | 3672 ft | 217 kts | 91° |
| 2026-05-04 11:44 | 53.45266 | -6.55344 | 3505 ft | 217 kts | 94° |
| 2026-05-04 11:44 | 53.45113 | -6.52799 | 3216 ft | 220 kts | 93° |
| 2026-05-04 11:44 | 53.44964 | -6.50252 | 2920 ft | 218 kts | 92° |
| 2026-05-04 11:45 | 53.44820 | -6.47735 | 2632 ft | 215 kts | 92° |
| 2026-05-04 11:45 | 53.44682 | -6.45250 | 2341 ft | 216 kts | 91° |
| 2026-05-04 11:45 | 53.44540 | -6.42739 | 2030 ft | 213 kts | 94° |
| 2026-05-04 11:45 | 53.44397 | -6.40335 | 1731 ft | 200 kts | 92° |
| 2026-05-04 11:46 | 53.44274 | -6.38102 | 1473 ft | 185 kts | 92° |
| 2026-05-04 11:46 | 53.44160 | -6.36057 | 1224 ft | 167 kts | 92° |
| 2026-05-04 11:46 | 53.44057 | -6.34235 | 1028 ft | 146 kts | 92° |
| 2026-05-04 11:46 | 53.43969 | -6.32629 | 829 ft | 135 kts | 91° |
| 2026-05-04 11:47 | 53.43883 | -6.31035 | 640 ft | 140 kts | 92° |
| 2026-05-04 11:47 | 53.43796 | -6.29435 | 448 ft | 137 kts | 94° |
| 2026-05-04 11:47 | 53.43707 | -6.27855 | 259 ft | 136 kts | 91° |
| 2026-05-04 11:47 | 53.43630 | -6.26454 | 228 ft | 94 kts | 95° |
| 2026-05-04 11:48 | 53.43587 | -6.25678 | 224 ft | 43 kts | 96° |
| 2026-05-04 11:48 | 53.43537 | -6.25256 | 225 ft | 36 kts | 117° |
| 2026-05-04 11:48 | 53.43462 | -6.25035 | 225 ft | 16 kts | 120° |
| 2026-05-04 11:48 | 53.43408 | -6.24879 | 224 ft | 15 kts | 120° |
| 2026-05-04 11:49 | 53.43363 | -6.24724 | 224 ft | 15 kts | 101° |
| 2026-05-04 11:49 | 53.43354 | -6.24572 | 224 ft | 9 kts | 95° |
| 2026-05-04 11:49 | 53.43351 | -6.24505 | 224 ft | 5 kts | 96° |
| 2026-05-04 11:49 | 53.43349 | -6.24473 | 224 ft | 2 kts | 96° |
| 2026-05-04 11:50 | 53.43342 | -6.24435 | 225 ft | 5 kts | 116° |
| 2026-05-04 11:50 | 53.43296 | -6.24405 | 224 ft | 10 kts | 178° |
| 2026-05-04 11:50 | 53.43217 | -6.24418 | 225 ft | 10 kts | 199° |
| 2026-05-04 11:50 | 53.43192 | -6.24498 | 224 ft | 7 kts | 269° |
| 2026-05-04 11:51 | 53.43166 | -6.24555 | 224 ft | 7 kts | 190° |
| 2026-05-04 11:51 | 53.43123 | -6.24563 | 224 ft | 5 kts | 186° |
| 2026-05-04 11:51 | 53.43090 | -6.24569 | 224 ft | 3 kts | 186° |
| 2026-05-04 11:51 | 53.43084 | -6.24570 | 224 ft | 0 kts | 186° |